createdAt,value
2019-05-26T00:00:11.936Z,4.03
2019-05-26T00:02:41.391Z,3.17
2019-05-26T00:05:11.072Z,4.70
2019-05-26T00:07:40.458Z,4.60
2019-05-26T00:10:10.595Z,4.43
2019-05-26T00:12:40.086Z,8.60
2019-05-26T00:15:10.490Z,8.00
2019-05-26T00:17:39.871Z,4.97
2019-05-26T00:20:10.684Z,4.80
2019-05-26T00:22:40.056Z,4.60
2019-05-26T00:25:10.554Z,5.67
2019-05-26T00:27:39.935Z,7.50
2019-05-26T00:30:10.521Z,6.20
2019-05-26T00:32:39.898Z,6.03
2019-05-26T00:35:09.331Z,6.03
2019-05-26T00:37:49.288Z,5.17
2019-05-26T00:40:12.119Z,6.00
2019-05-26T00:42:41.746Z,7.00
2019-05-26T00:45:11.726Z,8.27
2019-05-26T00:47:41.263Z,5.57
2019-05-26T00:50:11.446Z,6.53
2019-05-26T00:52:41.051Z,7.10
2019-05-26T00:55:11.230Z,8.93
2019-05-26T00:57:40.677Z,5.47
2019-05-26T01:00:11.718Z,9.20
2019-05-26T01:02:41.267Z,9.97
2019-05-26T01:05:11.858Z,9.73
2019-05-26T01:07:41.296Z,8.77
2019-05-26T01:10:11.483Z,7.63
2019-05-26T01:12:40.864Z,10.73
2019-05-26T01:15:11.226Z,14.17
2019-05-26T01:17:40.606Z,9.00
2019-05-26T01:20:10.690Z,8.13
2019-05-26T01:22:40.065Z,11.73
2019-05-26T01:25:09.845Z,9.17
2019-05-26T01:27:39.214Z,8.63
2019-05-26T01:30:10.200Z,9.17
2019-05-26T01:32:39.643Z,8.70
2019-05-26T01:35:10.540Z,10.97
2019-05-26T01:37:40.820Z,12.17
2019-05-26T01:40:11.023Z,10.83
2019-05-26T01:42:40.386Z,9.97
2019-05-26T01:45:10.303Z,15.70
2019-05-26T01:47:39.692Z,14.73
2019-05-26T01:50:09.518Z,13.37
2019-05-26T01:52:38.912Z,17.03
2019-05-26T01:55:08.634Z,18.83
2019-05-26T01:57:38.185Z,17.20
2019-05-26T02:00:09.477Z,18.17
2019-05-26T02:02:38.953Z,19.17
2019-05-26T02:05:08.547Z,19.27
2019-05-26T02:07:37.932Z,17.73
2019-05-26T02:10:09.290Z,20.70
2019-05-26T02:12:38.674Z,18.70
2019-05-26T02:15:09.667Z,17.30
2019-05-26T02:17:39.117Z,21.53
2019-05-26T02:20:10.346Z,22.07
2019-05-26T02:22:39.789Z,20.53
2019-05-26T02:25:10.672Z,24.87
2019-05-26T02:27:40.052Z,21.53
2019-05-26T02:30:11.035Z,17.37
2019-05-26T02:32:40.494Z,19.37
2019-05-26T02:35:10.579Z,21.20
2019-05-26T02:37:39.979Z,19.67
2019-05-26T02:40:10.642Z,23.43
2019-05-26T02:42:40.538Z,24.73
2019-05-26T02:45:15.357Z,24.93
2019-05-26T02:47:46.317Z,22.60
2019-05-26T02:50:17.383Z,26.03
2019-05-26T02:52:46.937Z,27.73
2019-05-26T02:55:17.121Z,23.07
2019-05-26T02:57:46.786Z,27.37
2019-05-26T03:00:37.243Z,27.40
2019-05-26T03:03:07.427Z,32.93
2019-05-26T03:05:37.745Z,30.40
2019-05-26T03:08:08.730Z,28.70
2019-05-26T03:10:39.994Z,29.40
2019-05-26T03:13:14.474Z,30.87
2019-05-26T03:15:46.959Z,34.23
2019-05-26T03:18:17.018Z,34.73
2019-05-26T03:20:46.939Z,30.83
2019-05-26T03:23:17.165Z,33.13
2019-05-26T03:25:46.790Z,33.50
2019-05-26T03:28:16.174Z,34.57
2019-05-26T03:30:45.641Z,31.77
2019-05-26T03:33:15.022Z,36.30
2019-05-26T03:35:44.516Z,36.53
2019-05-26T03:38:13.858Z,34.73
2019-05-26T03:40:43.478Z,37.23
2019-05-26T03:43:12.900Z,35.80
2019-05-26T03:45:49.525Z,35.87
2019-05-26T03:48:18.974Z,34.10
2019-05-26T03:50:48.295Z,33.83
2019-05-26T03:53:17.676Z,37.30
2019-05-26T03:55:47.062Z,34.30
2019-05-26T03:58:16.442Z,35.90
2019-05-26T04:00:45.904Z,37.13
2019-05-26T04:03:15.272Z,34.73
2019-05-26T04:05:44.656Z,37.20
2019-05-26T04:08:14.038Z,35.70
2019-05-26T04:10:43.421Z,33.87
2019-05-26T04:13:12.810Z,33.83
2019-05-26T04:15:42.497Z,32.70
2019-05-26T04:18:11.890Z,30.83
2019-05-26T04:20:45.598Z,34.87
2019-05-26T04:23:12.381Z,32.63
2019-05-26T04:25:41.763Z,33.67
2019-05-26T04:28:11.273Z,31.23
2019-05-26T04:30:40.707Z,33.47
2019-05-26T04:33:10.105Z,29.63
2019-05-26T04:35:39.464Z,31.57
2019-05-26T04:38:08.858Z,34.27
2019-05-26T04:40:38.216Z,34.70
2019-05-26T04:43:07.603Z,32.90
2019-05-26T04:45:37.100Z,31.17
2019-05-26T04:48:06.714Z,32.20
2019-05-26T04:50:36.109Z,33.70
2019-05-26T04:53:07.237Z,31.50
2019-05-26T04:55:36.661Z,32.23
2019-05-26T04:58:06.130Z,29.93
2019-05-26T05:00:35.569Z,30.53
2019-05-26T05:03:04.958Z,29.43
2019-05-26T05:05:34.331Z,30.00
2019-05-26T05:08:03.721Z,27.70
2019-05-26T05:10:41.727Z,29.53
2019-05-26T05:13:04.669Z,27.90
2019-05-26T05:15:34.039Z,29.07
2019-05-26T05:18:03.419Z,28.37
2019-05-26T05:20:32.822Z,26.13
2019-05-26T05:23:02.208Z,28.37
2019-05-26T05:25:31.589Z,28.77
2019-05-26T05:28:00.971Z,28.10
2019-05-26T05:30:30.425Z,28.07
2019-05-26T05:32:59.807Z,29.30
2019-05-26T05:35:29.190Z,27.13
2019-05-26T05:37:58.570Z,27.73
2019-05-26T05:40:27.957Z,28.30
2019-05-26T05:42:57.334Z,26.57
2019-05-26T05:45:26.713Z,26.33
2019-05-26T05:47:56.089Z,29.67
2019-05-26T05:50:25.544Z,29.73
2019-05-26T05:52:54.923Z,31.90
2019-05-26T05:55:24.308Z,27.63
2019-05-26T05:57:53.711Z,31.63
2019-05-26T06:00:23.997Z,26.20
2019-05-26T06:02:53.415Z,26.40
2019-05-26T06:05:22.981Z,24.37
2019-05-26T06:07:52.362Z,26.77
2019-05-26T06:10:22.152Z,22.63
2019-05-26T06:12:51.631Z,27.27
2019-05-26T06:15:21.329Z,29.53
2019-05-26T06:17:50.763Z,27.70
2019-05-26T06:20:21.546Z,22.87
2019-05-26T06:22:50.930Z,23.87
2019-05-26T06:25:20.556Z,22.93
2019-05-26T06:27:50.083Z,24.23
2019-05-26T06:30:20.272Z,29.20
2019-05-26T06:32:49.655Z,24.23
2019-05-26T06:35:19.036Z,24.80
2019-05-26T06:37:48.419Z,23.80
2019-05-26T06:40:19.013Z,24.17
2019-05-26T06:42:48.460Z,23.90
2019-05-26T06:45:20.117Z,22.43
2019-05-26T06:47:49.515Z,21.40
2019-05-26T06:50:19.756Z,19.83
2019-05-26T06:52:49.143Z,20.43
2019-05-26T06:55:18.597Z,22.00
2019-05-26T06:57:48.006Z,21.67
2019-05-26T07:00:18.791Z,20.03
2019-05-26T07:02:48.177Z,22.10
2019-05-26T07:05:18.717Z,23.17
2019-05-26T07:07:48.160Z,21.40
2019-05-26T07:10:18.044Z,21.87
2019-05-26T07:12:47.439Z,17.30
2019-05-26T07:15:17.626Z,17.50
2019-05-26T07:17:47.013Z,20.13
2019-05-26T07:20:16.789Z,20.20
2019-05-26T07:22:46.357Z,20.53
2019-05-26T07:25:16.362Z,18.97
2019-05-26T07:27:45.873Z,19.77
2019-05-26T07:30:15.858Z,17.63
2019-05-26T07:32:45.237Z,21.97
2019-05-26T07:35:15.222Z,19.20
2019-05-26T07:37:44.679Z,19.23
2019-05-26T07:40:14.878Z,17.87
2019-05-26T07:42:44.272Z,17.03
2019-05-26T07:45:14.265Z,18.13
2019-05-26T07:47:43.651Z,16.17
2019-05-26T07:50:13.568Z,16.73
2019-05-26T07:52:43.015Z,18.10
2019-05-26T07:55:12.980Z,16.43
2019-05-26T07:57:43.138Z,18.45
2019-05-26T08:00:13.143Z,18.02
2019-05-26T08:02:42.533Z,16.77
2019-05-26T08:05:12.526Z,19.25
2019-05-26T08:07:41.914Z,16.90
2019-05-26T08:10:12.314Z,15.80
2019-05-26T08:12:41.705Z,16.93
2019-05-26T08:15:11.735Z,19.25
2019-05-26T08:17:41.134Z,16.32
2019-05-26T08:20:13.864Z,15.00
2019-05-26T08:22:43.250Z,16.77
2019-05-26T08:25:14.039Z,16.15
2019-05-26T08:27:43.494Z,14.70
2019-05-26T08:30:14.762Z,17.90
2019-05-26T08:32:44.166Z,17.48
2019-05-26T08:35:14.141Z,15.32
2019-05-26T08:37:43.534Z,14.07
2019-05-26T08:40:19.239Z,17.92
2019-05-26T08:42:51.530Z,15.68
2019-05-26T08:45:23.455Z,16.17
2019-05-26T08:47:53.284Z,17.87
2019-05-26T08:50:23.606Z,16.70
2019-05-26T08:52:53.004Z,20.75
2019-05-26T08:55:24.154Z,17.35
2019-05-26T08:57:53.614Z,16.30
2019-05-26T09:00:23.699Z,14.18
2019-05-26T09:02:53.250Z,17.52
2019-05-26T09:05:22.810Z,17.05
2019-05-26T09:07:52.190Z,19.12
2019-05-26T09:10:21.748Z,18.25
2019-05-26T09:13:00.731Z,18.37
2019-05-26T09:15:22.475Z,20.02
2019-05-26T09:17:51.854Z,17.23
2019-05-26T09:20:23.040Z,15.85
2019-05-26T09:22:52.419Z,16.57
2019-05-26T09:25:21.807Z,17.62
2019-05-26T09:27:51.230Z,16.90
2019-05-26T09:30:21.334Z,15.20
2019-05-26T09:32:50.710Z,15.70
2019-05-26T09:35:20.163Z,16.40
2019-05-26T09:37:49.596Z,16.00
2019-05-26T09:40:19.235Z,15.55
2019-05-26T09:42:48.834Z,15.68
2019-05-26T09:45:19.127Z,15.88
2019-05-26T09:47:48.515Z,17.05
2019-05-26T09:50:18.487Z,14.85
2019-05-26T09:52:47.881Z,18.30
2019-05-26T09:55:17.703Z,16.07
2019-05-26T09:57:47.086Z,19.12
2019-05-26T10:00:17.378Z,15.83
2019-05-26T10:02:46.819Z,17.05
2019-05-26T10:05:16.674Z,16.12
2019-05-26T10:07:46.051Z,13.75
2019-05-26T10:10:16.341Z,15.18
2019-05-26T10:12:45.797Z,18.77
2019-05-26T10:15:16.185Z,16.48
2019-05-26T10:17:45.636Z,14.80
2019-05-26T10:20:15.830Z,16.45
2019-05-26T10:22:45.251Z,16.77
2019-05-26T10:25:14.980Z,17.17
2019-05-26T10:27:44.498Z,15.10
2019-05-26T10:30:16.254Z,15.10
2019-05-26T10:32:45.855Z,14.60
2019-05-26T10:35:15.679Z,18.05
2019-05-26T10:37:45.096Z,16.55
2019-05-26T10:40:17.079Z,13.50
2019-05-26T10:42:46.480Z,12.00
2019-05-26T10:45:16.488Z,16.17
2019-05-26T10:47:45.867Z,12.80
2019-05-26T10:50:16.153Z,10.45
2019-05-26T10:52:45.544Z,19.32
2019-05-26T10:55:15.999Z,8.68
2019-05-26T10:57:46.169Z,5.30
2019-05-26T11:00:17.543Z,6.78
2019-05-26T11:02:46.906Z,7.30
2019-05-26T11:05:17.631Z,4.58
2019-05-26T11:07:46.993Z,4.40
2019-05-26T11:10:16.908Z,4.28
2019-05-26T11:12:46.296Z,4.53
2019-05-26T11:15:17.179Z,4.42
2019-05-26T11:17:46.560Z,5.25
2019-05-26T11:20:16.651Z,4.78
2019-05-26T11:22:46.292Z,6.65
2019-05-26T11:25:17.103Z,5.62
2019-05-26T11:27:46.483Z,8.38
2019-05-26T11:30:17.167Z,7.30
2019-05-26T11:32:46.552Z,7.05
2019-05-26T11:35:16.332Z,6.50
2019-05-26T11:37:45.782Z,6.85
2019-05-26T11:40:17.108Z,4.75
2019-05-26T11:42:46.458Z,6.47
2019-05-26T11:45:16.735Z,7.55
2019-05-26T11:47:46.118Z,4.55
2019-05-26T11:50:16.495Z,7.72
2019-05-26T11:52:45.944Z,8.53
2019-05-26T11:55:16.425Z,7.78
2019-05-26T11:57:46.007Z,5.58
2019-05-26T12:00:17.856Z,8.18
2019-05-26T12:02:47.595Z,8.15
2019-05-26T12:05:18.070Z,7.08
2019-05-26T12:07:47.620Z,6.95
2019-05-26T12:10:17.452Z,7.95
2019-05-26T12:12:46.824Z,6.00
2019-05-26T12:15:17.420Z,14.25
2019-05-26T12:17:46.794Z,6.17
2019-05-26T12:20:18.173Z,7.70
2019-05-26T12:22:47.546Z,5.15
2019-05-26T12:25:17.337Z,12.98
2019-05-26T12:27:46.706Z,4.87
2019-05-26T12:30:16.796Z,4.20
2019-05-26T12:32:46.196Z,4.85
2019-05-26T12:35:16.089Z,5.08
2019-05-26T12:37:48.273Z,11.18
2019-05-26T12:40:17.598Z,3.77
2019-05-26T12:42:46.975Z,4.97
2019-05-26T12:45:18.434Z,4.83
2019-05-26T12:47:47.806Z,6.05
2019-05-26T12:50:17.328Z,3.50
2019-05-26T12:52:46.698Z,5.50
2019-05-26T12:55:17.755Z,5.97
2019-05-26T12:57:48.720Z,7.35
2019-05-26T13:00:18.602Z,5.05
2019-05-26T13:02:48.455Z,2.65
2019-05-26T13:05:19.021Z,4.05
2019-05-26T13:07:48.466Z,5.53
2019-05-26T13:10:18.647Z,2.98
2019-05-26T13:12:48.048Z,7.25
2019-05-26T13:15:18.460Z,6.03
2019-05-26T13:17:47.876Z,6.95
2019-05-26T13:20:18.239Z,6.05
2019-05-26T13:22:47.721Z,7.75
2019-05-26T13:25:17.907Z,5.15
2019-05-26T13:27:47.286Z,7.30
2019-05-26T13:30:23.715Z,5.67
2019-05-26T13:32:53.157Z,3.33
2019-05-26T13:35:23.048Z,3.58
2019-05-26T13:37:52.666Z,3.83
2019-05-26T13:40:22.258Z,6.20
2019-05-26T13:42:51.635Z,4.87
2019-05-26T13:45:23.180Z,4.25
2019-05-26T13:47:52.770Z,5.35
2019-05-26T13:50:22.654Z,3.08
2019-05-26T13:52:52.045Z,3.80
2019-05-26T13:55:22.029Z,2.35
2019-05-26T13:57:52.063Z,4.62
2019-05-26T14:00:23.398Z,2.92
2019-05-26T14:02:53.181Z,3.42
2019-05-26T14:05:23.567Z,2.30
2019-05-26T14:07:52.941Z,3.75
2019-05-26T14:10:36.871Z,1.85
2019-05-26T14:13:08.179Z,2.40
2019-05-26T14:15:39.160Z,3.95
2019-05-26T14:18:09.488Z,2.72
2019-05-26T14:20:42.939Z,4.25
2019-05-26T14:23:12.885Z,2.58
2019-05-26T14:25:42.273Z,2.00
2019-05-26T14:28:11.648Z,2.77
2019-05-26T14:30:41.041Z,2.22
2019-05-26T14:33:10.474Z,1.17
2019-05-26T14:35:39.934Z,1.07
2019-05-26T14:38:09.321Z,5.35
2019-05-26T14:40:38.691Z,4.15
2019-05-26T14:43:08.236Z,2.92
2019-05-26T14:45:52.013Z,2.45
2019-05-26T14:48:08.782Z,3.45
2019-05-26T14:50:40.680Z,0.65
2019-05-26T14:53:09.267Z,1.92
2019-05-26T14:55:38.706Z,0.98
2019-05-26T14:58:15.808Z,1.50
2019-05-26T15:00:39.184Z,0.90
2019-05-26T15:03:08.568Z,0.72
2019-05-26T15:05:37.940Z,1.98
2019-05-26T15:08:07.317Z,2.52
2019-05-26T15:10:36.690Z,1.00
2019-05-26T15:13:06.116Z,3.12
2019-05-26T15:15:35.444Z,4.80
2019-05-26T15:18:04.900Z,0.72
2019-05-26T15:20:34.275Z,3.35
2019-05-26T15:23:03.654Z,2.27
2019-05-26T15:25:33.032Z,1.62
2019-05-26T15:28:02.569Z,5.15
2019-05-26T15:30:32.250Z,0.95
2019-05-26T15:33:01.629Z,2.12
2019-05-26T15:35:31.081Z,5.20
2019-05-26T15:38:00.567Z,3.12
2019-05-26T15:40:29.922Z,3.02
2019-05-26T15:42:59.299Z,5.12
2019-05-26T15:45:28.751Z,3.02
2019-05-26T15:47:58.132Z,3.62
2019-05-26T15:50:27.508Z,5.15
2019-05-26T15:52:57.148Z,8.10
2019-05-26T15:55:26.592Z,6.03
2019-05-26T15:57:55.970Z,3.52
2019-05-26T16:00:25.355Z,3.10
2019-05-26T16:02:54.733Z,4.12
2019-05-26T16:05:24.103Z,6.40
2019-05-26T16:07:53.486Z,3.65
2019-05-26T16:10:26.383Z,5.37
2019-05-26T16:12:55.766Z,4.85
2019-05-26T16:15:25.221Z,5.22
2019-05-26T16:17:54.594Z,5.17
2019-05-26T16:20:23.963Z,2.55
2019-05-26T16:22:53.352Z,4.72
2019-05-26T16:25:22.729Z,4.53
2019-05-26T16:27:52.174Z,4.75
2019-05-26T16:30:21.628Z,5.85
2019-05-26T16:32:51.012Z,5.58
2019-05-26T16:35:20.469Z,6.50
2019-05-26T16:37:49.852Z,3.60
2019-05-26T16:40:19.219Z,7.58
2019-05-26T16:42:48.602Z,4.12
2019-05-26T16:45:19.021Z,5.62
2019-05-26T16:47:48.533Z,4.50
2019-05-26T16:50:18.056Z,7.10
2019-05-26T16:52:47.434Z,5.58
2019-05-26T16:55:17.153Z,6.65
2019-05-26T16:57:46.539Z,4.50
2019-05-26T17:00:17.190Z,6.78
2019-05-26T17:02:46.615Z,4.37
2019-05-26T17:05:16.333Z,7.08
2019-05-26T17:07:45.792Z,3.37
2019-05-26T17:10:16.308Z,3.90
2019-05-26T17:12:45.793Z,5.25
2019-05-26T17:15:15.335Z,4.37
2019-05-26T17:17:44.728Z,4.22
2019-05-26T17:20:14.612Z,6.53
2019-05-26T17:22:44.010Z,5.70
2019-05-26T17:25:14.673Z,6.05
2019-05-26T17:27:44.053Z,3.87
2019-05-26T17:30:13.839Z,3.92
2019-05-26T17:32:43.220Z,4.08
2019-05-26T17:35:13.240Z,7.97
2019-05-26T17:37:42.704Z,4.50
2019-05-26T17:40:12.481Z,2.70
2019-05-26T17:42:41.877Z,2.98
2019-05-26T17:45:11.763Z,6.35
2019-05-26T17:47:41.166Z,2.40
2019-05-26T17:50:11.381Z,3.27
2019-05-26T17:52:40.811Z,4.10
2019-05-26T17:55:11.003Z,5.75
2019-05-26T17:57:40.393Z,4.87
2019-05-26T18:00:12.850Z,2.35
2019-05-26T18:02:42.227Z,3.00
2019-05-26T18:05:13.216Z,3.90
2019-05-26T18:07:42.622Z,3.77
2019-05-26T18:10:12.912Z,5.62
2019-05-26T18:12:42.299Z,3.95
2019-05-26T18:15:12.380Z,2.22
2019-05-26T18:17:47.447Z,2.30
2019-05-26T18:20:13.772Z,1.55
2019-05-26T18:22:43.337Z,2.85
2019-05-26T18:25:13.360Z,4.50
2019-05-26T18:27:42.762Z,3.95
2019-05-26T18:30:12.945Z,3.08
2019-05-26T18:32:42.343Z,3.02
2019-05-26T18:35:12.569Z,3.15
2019-05-26T18:37:41.951Z,2.15
2019-05-26T18:40:12.501Z,2.87
2019-05-26T18:42:41.880Z,1.90
2019-05-26T18:45:12.465Z,3.75
2019-05-26T18:47:41.917Z,2.83
2019-05-26T18:50:12.036Z,2.95
2019-05-26T18:52:41.404Z,3.45
2019-05-26T18:55:11.189Z,2.47
2019-05-26T18:57:40.570Z,3.80
2019-05-26T19:00:12.026Z,4.42
2019-05-26T19:02:41.427Z,2.72
2019-05-26T19:05:10.973Z,7.25
2019-05-26T19:07:40.350Z,4.17
2019-05-26T19:10:10.829Z,7.20
2019-05-26T19:12:40.204Z,7.15
2019-05-26T19:15:10.345Z,5.33
2019-05-26T19:17:39.750Z,5.17
2019-05-26T19:20:16.686Z,6.30
2019-05-26T19:22:42.210Z,6.42
2019-05-26T19:25:12.218Z,7.22
2019-05-26T19:27:41.609Z,5.10
2019-05-26T19:30:11.778Z,5.85
2019-05-26T19:32:41.159Z,6.72
2019-05-26T19:35:11.065Z,8.18
2019-05-26T19:37:40.502Z,4.62
2019-05-26T19:40:10.985Z,8.50
2019-05-26T19:42:40.359Z,7.77
2019-05-26T19:45:10.307Z,4.62
2019-05-26T19:47:39.739Z,6.57
2019-05-26T19:50:09.926Z,6.95
2019-05-26T19:52:39.305Z,5.63
2019-05-26T19:55:09.203Z,7.93
2019-05-26T19:57:38.574Z,5.87
2019-05-26T20:00:14.781Z,7.27
2019-05-26T20:02:44.163Z,4.70
2019-05-26T20:05:14.528Z,9.23
2019-05-26T20:07:43.886Z,5.97
2019-05-26T20:10:13.705Z,6.23
2019-05-26T20:12:43.119Z,9.50
2019-05-26T20:15:14.368Z,6.43
2019-05-26T20:17:44.300Z,8.67
2019-05-26T20:20:14.584Z,5.60
2019-05-26T20:22:43.949Z,9.57
2019-05-26T20:25:13.778Z,6.90
2019-05-26T20:27:43.145Z,7.70
2019-05-26T20:30:15.265Z,7.73
2019-05-26T20:32:44.640Z,10.37
2019-05-26T20:35:15.292Z,10.97
2019-05-26T20:37:44.678Z,8.43
2019-05-26T20:40:15.160Z,8.50
2019-05-26T20:42:44.535Z,6.17
2019-05-26T20:45:15.421Z,7.67
2019-05-26T20:47:44.802Z,8.80
2019-05-26T20:50:28.131Z,8.40
2019-05-26T20:52:46.152Z,10.30
2019-05-26T20:55:15.989Z,8.63
2019-05-26T20:57:45.365Z,7.87
2019-05-26T21:00:16.175Z,6.90
2019-05-26T21:02:45.690Z,11.20
2019-05-26T21:05:15.675Z,9.07
2019-05-26T21:07:45.095Z,9.43
2019-05-26T21:10:14.604Z,7.37
2019-05-26T21:12:44.119Z,7.37
2019-05-26T21:15:16.107Z,8.53
2019-05-26T21:17:45.597Z,7.90
2019-05-26T21:20:15.681Z,8.40
2019-05-26T21:22:45.724Z,9.60
2019-05-26T21:25:15.355Z,6.67
2019-05-26T21:27:44.730Z,6.63
2019-05-26T21:30:14.614Z,7.57
2019-05-26T21:32:43.997Z,7.07
2019-05-26T21:35:14.049Z,7.50
2019-05-26T21:37:43.430Z,5.67
2019-05-26T21:40:13.072Z,6.97
2019-05-26T21:42:42.451Z,6.33
2019-05-26T21:45:12.536Z,5.10
2019-05-26T21:47:41.908Z,5.40
2019-05-26T21:50:12.001Z,3.73
2019-05-26T21:52:41.387Z,6.53
2019-05-26T21:55:12.838Z,5.83
2019-05-26T21:57:42.236Z,5.63
2019-05-26T22:00:14.142Z,4.00
2019-05-26T22:02:43.527Z,4.57
2019-05-26T22:05:13.719Z,6.27
2019-05-26T22:07:43.102Z,6.30
2019-05-26T22:10:12.912Z,5.17
2019-05-26T22:12:42.287Z,4.33
2019-05-26T22:15:11.989Z,3.90
2019-05-26T22:17:41.343Z,6.77
2019-05-26T22:20:11.544Z,4.47
2019-05-26T22:22:40.920Z,4.20
2019-05-26T22:25:10.655Z,3.33
2019-05-26T22:27:40.039Z,5.10
2019-05-26T22:30:10.719Z,3.27
2019-05-26T22:32:40.287Z,3.80
2019-05-26T22:35:10.747Z,5.40
2019-05-26T22:37:40.135Z,4.00
2019-05-26T22:40:10.204Z,2.97
2019-05-26T22:42:39.760Z,4.73
2019-05-26T22:45:11.402Z,3.20
2019-05-26T22:47:40.793Z,5.03
2019-05-26T22:50:11.772Z,4.50
2019-05-26T22:52:41.152Z,4.70
2019-05-26T22:55:11.063Z,3.80
2019-05-26T22:57:40.463Z,6.03
2019-05-26T23:00:11.836Z,5.53
2019-05-26T23:02:41.249Z,6.40
2019-05-26T23:05:11.231Z,7.00
2019-05-26T23:07:40.606Z,5.10
2019-05-26T23:10:10.691Z,5.90
2019-05-26T23:12:40.139Z,7.27
2019-05-26T23:15:11.419Z,6.47
2019-05-26T23:17:40.803Z,5.63
2019-05-26T23:20:11.486Z,6.07
2019-05-26T23:22:40.855Z,6.70
2019-05-26T23:25:10.401Z,6.17
2019-05-26T23:27:39.780Z,7.97
2019-05-26T23:30:10.063Z,4.47
2019-05-26T23:32:39.443Z,7.00
2019-05-26T23:35:09.326Z,7.50
2019-05-26T23:37:38.789Z,5.37
2019-05-26T23:40:08.868Z,7.90
2019-05-26T23:42:38.246Z,5.00
2019-05-26T23:45:08.928Z,8.67
2019-05-26T23:47:38.315Z,8.40
2019-05-26T23:50:08.312Z,8.83
2019-05-26T23:52:37.686Z,5.67
2019-05-26T23:55:08.166Z,6.50
2019-05-26T23:57:37.540Z,6.20
